Horse Branch, Kentucky
Current Conditions -  °F | °C
As of 10:56 AM on Saturday 25 Oct 2014 (Local Time) from KOWB Reporting Station
Scattered Clouds Scattered Clouds  
Wind Chill: 69°   Ceiling: Unl
Heat Index: 69°   Visibility: 10mi
Dew Point: 60°   Wind: 10mph
Humidity: 73%   Direction: 280°W
Pressure: 30.03"   Gusts: NA
Location:  37.46°N, 86.68°W
Report Text: KOWB 251556Z 28009KT 10SM FEW037 SCT045 21/16 A3003 RMK AO2 T02050155 SLP169
Loading
Personal Weather Stations






























Interactive Weather Map
Tropical Storm Tracking
New forecast layout! Learn more

10-Day Weather Forecast

Advertisements
Track Severe Weather on mobile